Wind From: 13-12-2017 10:08 Until: 14-12-2017 06:00 warning for: Wind Level: Yellow info button

Although rather usual in this region, locally or potentially dangerous phenomena are expected. (such as local winds, summer thunderstorms, rising streams or high waves) Be aware and pay attention to the latest weather updates, especially if you carry out activities exposed to weather or close to a stream or shoreline. 


Meteo18 Weather Cam more information Meteo18 Weather Cam


Thunder radar more information blitzortung!


Rain radar more information rain snow radar


Visit our other weather sites:

Template documentation
and downloads

And another site



Weather Underground History page Text

Daily Summary for September 6, 2016 Units:  Metric    English   Both
« Previous Day
Next Day »
Daily Weekly Monthly Yearly Custom
  High: Low: Average:
Temperature: 25.4 °C 17.3 °C 20.6 °C
Dew Point: 19.8 °C 14.0 °C 17.9 °C
Humidity: 97 % 62 % 85 %
Wind Speed: 17.7 km/h 0.0 km/h 4.2 km/h
Wind Gust: 29.0 km/h - -
Wind:- - SSE
Pressure: 1024.3 hPa 1020.5 hPa -
Precipitation: 0.0 mm    
Historical Graphs
 
 
Tabular Data for September 6, 2016
Time Temperature Dew Point Pressure Wind Wind Speed Wind Gust Humidity Rainfall Rate (Hourly)
00:02 19.4 °C 18.7 °C 1023.2 hPa Calm     96 % 0.0 mm
00:07 19.4 °C 18.7 °C 1023.2 hPa Calm     96 % 0.0 mm
00:12 19.3 °C 18.6 °C 1023.2 hPa Calm     96 % 0.0 mm
00:17 19.2 °C 18.5 °C 1023.2 hPa Calm     96 % 0.0 mm
00:22 19.1 °C 18.4 °C 1023.2 hPa Calm     96 % 0.0 mm
00:32 19.0 °C 18.3 °C 1023.2 hPa Calm     96 % 0.0 mm
00:42 19.1 °C 18.4 °C 1023.2 hPa Calm     96 % 0.0 mm
00:47 19.1 °C 18.4 °C 1023.2 hPa Calm     96 % 0.0 mm
00:52 19.1 °C 18.4 °C 1023.2 hPa Calm     96 % 0.0 mm
00:57 19.0 °C 18.3 °C 1023.2 hPa Calm     96 % 0.0 mm
01:02 19.0 °C 18.3 °C 1023.2 hPa Calm     96 % 0.0 mm
01:07 19.0 °C 18.3 °C 1023.2 hPa Calm     96 % 0.0 mm
01:12 18.9 °C 18.2 °C 1023.2 hPa Calm     96 % 0.0 mm
01:17 18.9 °C 18.2 °C 1023.2 hPa Calm     96 % 0.0 mm
01:22 18.8 °C 18.1 °C 1023.2 hPa Calm     96 % 0.0 mm
01:27 18.8 °C 18.1 °C 1023.2 hPa Calm     96 % 0.0 mm
01:32 18.9 °C 18.2 °C 1023.2 hPa Calm     96 % 0.0 mm
01:37 18.9 °C 18.2 °C 1023.6 hPa NNE 3.2 km/h   96 % 0.0 mm
01:42 18.9 °C 18.4 °C 1023.2 hPa NNE 1.6 km/h 8.0 km/h 97 % 0.0 mm
01:47 19.0 °C 18.5 °C 1023.2 hPa Calm   8.0 km/h 97 % 0.0 mm
01:52 19.1 °C 18.6 °C 1023.2 hPa Calm   8.0 km/h 97 % 0.0 mm
01:57 19.2 °C 18.7 °C 1023.2 hPa WNW 1.6 km/h 8.0 km/h 97 % 0.0 mm
02:02 19.2 °C 18.7 °C 1023.2 hPa WNW 1.6 km/h 4.8 km/h 97 % 0.0 mm
02:07 19.3 °C 18.8 °C 1023.2 hPa NNW 1.6 km/h 3.2 km/h 97 % 0.0 mm
02:12 19.3 °C 18.8 °C 1023.2 hPa NNW 1.6 km/h 4.8 km/h 97 % 0.0 mm
02:17 19.4 °C 18.7 °C 1023.2 hPa NNW 1.6 km/h 4.8 km/h 96 % 0.0 mm
02:22 19.5 °C 18.8 °C 1023.2 hPa Calm   4.8 km/h 96 % 0.0 mm
02:27 19.6 °C 18.9 °C 1023.2 hPa North 1.6 km/h 4.8 km/h 96 % 0.0 mm
02:32 19.6 °C 18.9 °C 1023.2 hPa Calm   3.2 km/h 96 % 0.0 mm
02:37 19.6 °C 18.8 °C 1023.2 hPa North 1.6 km/h 3.2 km/h 95 % 0.0 mm
02:42 19.6 °C 18.8 °C 1023.2 hPa North 1.6 km/h 3.2 km/h 95 % 0.0 mm
02:47 19.6 °C 18.8 °C 1023.2 hPa NNW 1.6 km/h 1.6 km/h 95 % 0.0 mm
02:57 19.6 °C 18.8 °C 1023.2 hPa NNW 1.6 km/h 3.2 km/h 95 % 0.0 mm
03:02 19.6 °C 18.8 °C 1023.2 hPa NW 3.2 km/h 3.2 km/h 95 % 0.0 mm
03:07 19.6 °C 18.8 °C 1023.2 hPa NNW 4.8 km/h 4.8 km/h 95 % 0.0 mm
03:12 19.5 °C 18.7 °C 1023.2 hPa NNE 6.4 km/h 6.4 km/h 95 % 0.0 mm
03:17 19.5 °C 18.7 °C 1023.2 hPa North 4.8 km/h 6.4 km/h 95 % 0.0 mm
03:22 19.4 °C 18.6 °C 1023.2 hPa North 4.8 km/h 6.4 km/h 95 % 0.0 mm
03:27 19.4 °C 18.6 °C 1023.2 hPa NE 1.6 km/h 6.4 km/h 95 % 0.0 mm
03:32 19.3 °C 18.5 °C 1023.2 hPa North 1.6 km/h 6.4 km/h 95 % 0.0 mm
03:37 19.3 °C 18.5 °C 1023.2 hPa NE 1.6 km/h 6.4 km/h 95 % 0.0 mm
03:42 19.4 °C 18.6 °C 1023.2 hPa NE 1.6 km/h 8.0 km/h 95 % 0.0 mm
03:47 19.4 °C 18.7 °C 1023.2 hPa NNE 3.2 km/h 8.0 km/h 96 % 0.0 mm
03:52 19.4 °C 18.7 °C 1023.2 hPa NNE 4.8 km/h 8.0 km/h 96 % 0.0 mm
03:57 19.4 °C 18.7 °C 1023.2 hPa North 1.6 km/h 8.0 km/h 96 % 0.0 mm
04:02 19.5 °C 18.8 °C 1023.2 hPa North 1.6 km/h 9.7 km/h 96 % 0.0 mm
04:07 19.5 °C 18.8 °C 1023.2 hPa NNE 3.2 km/h 9.7 km/h 96 % 0.0 mm
04:12 19.6 °C 18.9 °C 1023.2 hPa Calm   11.3 km/h 96 % 0.0 mm
04:17 19.6 °C 18.9 °C 1023.2 hPa NNE 3.2 km/h 11.3 km/h 96 % 0.0 mm
04:27 19.5 °C 18.7 °C 1023.2 hPa North 6.4 km/h 6.4 km/h 95 % 0.0 mm
04:32 19.5 °C 18.8 °C 1023.2 hPa NNE 1.6 km/h 11.3 km/h 96 % 0.0 mm
04:37 19.5 °C 18.7 °C 1023.2 hPa North 1.6 km/h 11.3 km/h 95 % 0.0 mm
04:42 19.5 °C 18.7 °C 1023.2 hPa NNE 1.6 km/h 11.3 km/h 95 % 0.0 mm
04:47 19.5 °C 18.7 °C 1023.2 hPa Calm   8.0 km/h 95 % 0.0 mm
04:52 19.4 °C 18.6 °C 1023.2 hPa NE 4.8 km/h 8.0 km/h 95 % 0.0 mm
04:57 19.4 °C 18.6 °C 1023.2 hPa NNE 1.6 km/h 6.4 km/h 95 % 0.0 mm
05:02 19.4 °C 18.6 °C 1023.2 hPa Calm   8.0 km/h 95 % 0.0 mm
05:12 19.3 °C 18.5 °C 1023.2 hPa Calm   8.0 km/h 95 % 0.0 mm
05:17 19.3 °C 18.5 °C 1023.2 hPa NNE 4.8 km/h 4.8 km/h 95 % 0.0 mm
05:32 19.3 °C 18.5 °C 1023.2 hPa North 1.6 km/h 4.8 km/h 95 % 0.0 mm
05:37 19.2 °C 18.4 °C 1023.2 hPa North 1.6 km/h 6.4 km/h 95 % 0.0 mm
05:42 19.2 °C 18.4 °C 1023.2 hPa NNW 1.6 km/h 6.4 km/h 95 % 0.0 mm
05:47 19.2 °C 18.4 °C 1023.2 hPa North 3.2 km/h 6.4 km/h 95 % 0.0 mm
05:52 19.2 °C 18.4 °C 1023.2 hPa North 1.6 km/h 6.4 km/h 95 % 0.0 mm
06:02 19.1 °C 18.3 °C 1023.2 hPa Calm   6.4 km/h 95 % 0.0 mm
06:07 19.1 °C 18.3 °C 1023.2 hPa NNE 3.2 km/h 6.4 km/h 95 % 0.0 mm
06:12 19.0 °C 18.2 °C 1023.2 hPa North 1.6 km/h 6.4 km/h 95 % 0.0 mm
06:17 18.9 °C 18.1 °C 1023.2 hPa NNW 4.8 km/h 4.8 km/h 95 % 0.0 mm
06:22 18.9 °C 18.1 °C 1023.2 hPa NNE 3.2 km/h 8.0 km/h 95 % 0.0 mm
06:27 18.8 °C 18.0 °C 1023.2 hPa NE 3.2 km/h 8.0 km/h 95 % 0.0 mm
06:32 18.7 °C 17.9 °C 1023.2 hPa Calm   8.0 km/h 95 % 0.0 mm
06:37 18.7 °C 17.9 °C 1023.2 hPa North 3.2 km/h 8.0 km/h 95 % 0.0 mm
06:42 18.6 °C 17.8 °C 1023.2 hPa NNW 1.6 km/h 8.0 km/h 95 % 0.0 mm
06:52 18.5 °C 17.8 °C 1023.2 hPa Calm   4.8 km/h 96 % 0.0 mm
07:02 18.4 °C 17.8 °C 1023.2 hPa Calm   3.2 km/h 96 % 0.0 mm
07:12 18.3 °C 17.7 °C 1023.2 hPa Calm   6.4 km/h 96 % 0.0 mm
07:17 18.3 °C 17.7 °C 1023.2 hPa NNW 4.8 km/h 4.8 km/h 96 % 0.0 mm
07:22 18.3 °C 17.7 °C 1023.2 hPa NNW 3.2 km/h 6.4 km/h 96 % 0.0 mm
07:32 18.1 °C 17.5 °C 1023.6 hPa North 4.8 km/h 8.0 km/h 96 % 0.0 mm
07:37 18.2 °C 17.6 °C 1023.6 hPa NNW 3.2 km/h 11.3 km/h 96 % 0.0 mm
07:42 18.2 °C 17.6 °C 1023.6 hPa North 6.4 km/h 11.3 km/h 96 % 0.0 mm
07:47 18.2 °C 17.6 °C 1023.6 hPa NE 3.2 km/h 11.3 km/h 96 % 0.0 mm
07:52 18.3 °C 17.7 °C 1023.6 hPa NNW 1.6 km/h 11.3 km/h 96 % 0.0 mm
07:57 18.3 °C 17.7 °C 1023.6 hPa NNW 1.6 km/h 8.0 km/h 96 % 0.0 mm
08:02 18.3 °C 17.7 °C 1023.6 hPa NNE 1.6 km/h 6.4 km/h 96 % 0.0 mm
08:07 18.4 °C 17.8 °C 1023.6 hPa North 4.8 km/h 6.4 km/h 96 % 0.0 mm
08:12 18.4 °C 17.8 °C 1023.6 hPa NNE 3.2 km/h 8.0 km/h 96 % 0.0 mm
08:17 18.4 °C 17.8 °C 1023.6 hPa North 3.2 km/h 8.0 km/h 96 % 0.0 mm
08:22 18.5 °C 17.8 °C 1023.6 hPa NNE 3.2 km/h 11.3 km/h 96 % 0.0 mm
08:27 18.6 °C 17.9 °C 1023.6 hPa NNW 4.8 km/h 11.3 km/h 96 % 0.0 mm
08:32 18.6 °C 17.9 °C 1023.6 hPa North 4.8 km/h 11.3 km/h 96 % 0.0 mm
08:37 18.6 °C 17.8 °C 1023.6 hPa North 6.4 km/h 9.7 km/h 95 % 0.0 mm
08:42 18.6 °C 17.8 °C 1023.6 hPa NNW 1.6 km/h 9.7 km/h 95 % 0.0 mm
08:47 18.6 °C 17.9 °C 1023.6 hPa North 3.2 km/h 9.7 km/h 96 % 0.0 mm
08:52 18.6 °C 17.8 °C 1023.6 hPa NNW 6.4 km/h 11.3 km/h 95 % 0.0 mm
08:57 18.6 °C 17.8 °C 1023.6 hPa NE 3.2 km/h 11.3 km/h 95 % 0.0 mm
09:02 18.6 °C 17.8 °C 1023.6 hPa NE 4.8 km/h 11.3 km/h 95 % 0.0 mm
09:12 18.6 °C 17.8 °C 1023.6 hPa North 3.2 km/h 9.7 km/h 95 % 0.0 mm
09:22 18.6 °C 17.8 °C 1023.6 hPa NE 4.8 km/h 9.7 km/h 95 % 0.0 mm
09:27 18.7 °C 17.9 °C 1023.6 hPa NE 4.8 km/h 9.7 km/h 95 % 0.0 mm
09:32 18.7 °C 17.9 °C 1023.9 hPa Calm   11.3 km/h 95 % 0.0 mm
09:37 18.8 °C 18.0 °C 1023.9 hPa NNE 1.6 km/h 11.3 km/h 95 % 0.0 mm
09:42 18.7 °C 17.7 °C 1023.9 hPa NNE 3.2 km/h 11.3 km/h 94 % 0.0 mm
09:47 18.8 °C 18.0 °C 1023.9 hPa NNW 3.2 km/h 9.7 km/h 95 % 0.0 mm
09:52 18.8 °C 18.0 °C 1023.9 hPa NW 1.6 km/h 8.0 km/h 95 % 0.0 mm
09:57 18.8 °C 18.0 °C 1023.9 hPa NNE 4.8 km/h 8.0 km/h 95 % 0.0 mm
10:02 18.7 °C 17.9 °C 1023.9 hPa NNW 3.2 km/h 8.0 km/h 95 % 0.0 mm
10:07 18.7 °C 17.9 °C 1023.9 hPa North 4.8 km/h 8.0 km/h 95 % 0.0 mm
10:17 18.7 °C 17.9 °C 1023.9 hPa North 4.8 km/h 8.0 km/h 95 % 0.0 mm
10:22 18.6 °C 17.8 °C 1023.9 hPa NNW 1.6 km/h 9.7 km/h 95 % 0.0 mm
10:27 18.6 °C 17.8 °C 1024.3 hPa NNW 1.6 km/h 9.7 km/h 95 % 0.0 mm
10:32 18.6 °C 17.8 °C 1023.9 hPa North 6.4 km/h 9.7 km/h 95 % 0.0 mm
10:37 18.6 °C 17.8 °C 1024.3 hPa North 1.6 km/h 11.3 km/h 95 % 0.0 mm
10:42 18.6 °C 17.8 °C 1024.3 hPa NNE 6.4 km/h 11.3 km/h 95 % 0.0 mm
10:47 18.6 °C 17.8 °C 1024.3 hPa North 6.4 km/h 11.3 km/h 95 % 0.0 mm
10:52 18.7 °C 17.9 °C 1024.3 hPa North 3.2 km/h 9.7 km/h 95 % 0.0 mm
10:57 18.7 °C 17.9 °C 1024.3 hPa North 3.2 km/h 9.7 km/h 95 % 0.0 mm
11:02 18.8 °C 18.0 °C 1024.3 hPa North 1.6 km/h 9.7 km/h 95 % 0.0 mm
11:12 18.9 °C 17.9 °C 1024.3 hPa NNW 3.2 km/h 9.7 km/h 94 % 0.0 mm
11:17 19.0 °C 18.0 °C 1024.3 hPa NNW 4.8 km/h 9.7 km/h 94 % 0.0 mm
11:22 19.1 °C 18.1 °C 1024.3 hPa NNE 6.4 km/h 11.3 km/h 94 % 0.0 mm
11:27 19.1 °C 17.9 °C 1024.3 hPa North 6.4 km/h 11.3 km/h 93 % 0.0 mm
11:32 19.2 °C 18.0 °C 1024.3 hPa North 3.2 km/h 11.3 km/h 93 % 0.0 mm
11:37 19.4 °C 18.2 °C 1024.3 hPa NW 3.2 km/h 9.7 km/h 93 % 0.0 mm
11:42 19.5 °C 18.3 °C 1024.3 hPa NNE 6.4 km/h 9.7 km/h 93 % 0.0 mm
11:47 19.6 °C 18.3 °C 1024.3 hPa North 4.8 km/h 8.0 km/h 92 % 0.0 mm
11:52 19.6 °C 18.4 °C 1024.3 hPa NNW 1.6 km/h 8.0 km/h 93 % 0.0 mm
11:57 19.7 °C 18.4 °C 1024.3 hPa NNW 3.2 km/h 8.0 km/h 92 % 0.0 mm
12:02 19.7 °C 18.4 °C 1024.3 hPa Calm   9.7 km/h 92 % 0.0 mm
12:07 19.8 °C 18.3 °C 1023.9 hPa Calm   9.7 km/h 91 % 0.0 mm
12:12 19.9 °C 18.4 °C 1023.9 hPa NE 3.2 km/h 9.7 km/h 91 % 0.0 mm
12:17 19.8 °C 18.3 °C 1023.9 hPa North 3.2 km/h 11.3 km/h 91 % 0.0 mm
12:22 19.8 °C 18.3 °C 1024.3 hPa NNW 3.2 km/h 12.9 km/h 91 % 0.0 mm
12:32 19.7 °C 18.4 °C 1024.3 hPa NW 3.2 km/h 9.7 km/h 92 % 0.0 mm
12:37 19.8 °C 18.5 °C 1024.3 hPa NE 8.0 km/h 9.7 km/h 92 % 0.0 mm
12:42 19.8 °C 18.5 °C 1024.3 hPa North 4.8 km/h 9.7 km/h 92 % 0.0 mm
12:52 19.9 °C 18.6 °C 1023.9 hPa NNW 4.8 km/h 14.5 km/h 92 % 0.0 mm
12:57 20.2 °C 18.9 °C 1023.9 hPa NNW 3.2 km/h 14.5 km/h 92 % 0.0 mm
13:02 20.3 °C 18.8 °C 1023.9 hPa NW 3.2 km/h 14.5 km/h 91 % 0.0 mm
13:07 20.5 °C 18.8 °C 1023.9 hPa NNW 3.2 km/h 9.7 km/h 90 % 0.0 mm
13:12 20.6 °C 18.7 °C 1023.9 hPa North 3.2 km/h 9.7 km/h 89 % 0.0 mm
13:17 20.8 °C 19.1 °C 1023.6 hPa NNW 4.8 km/h 9.7 km/h 90 % 0.0 mm
13:22 21.2 °C 19.1 °C 1023.6 hPa North 3.2 km/h 9.7 km/h 88 % 0.0 mm
13:27 21.2 °C 18.9 °C 1023.6 hPa NNW 3.2 km/h 9.7 km/h 87 % 0.0 mm
13:32 21.6 °C 19.3 °C 1023.6 hPa NNW 4.8 km/h 11.3 km/h 87 % 0.0 mm
13:37 21.7 °C 19.3 °C 1023.6 hPa NW 6.4 km/h 11.3 km/h 86 % 0.0 mm
13:42 22.2 °C 19.7 °C 1023.6 hPa NNW 6.4 km/h 11.3 km/h 86 % 0.0 mm
13:47 22.3 °C 19.5 °C 1023.2 hPa NE 3.2 km/h 12.9 km/h 84 % 0.0 mm
13:52 22.6 °C 19.4 °C 1023.2 hPa NE 4.8 km/h 12.9 km/h 82 % 0.0 mm
13:57 22.6 °C 19.8 °C 1023.2 hPa NE 11.3 km/h 17.7 km/h 84 % 0.0 mm
14:02 22.4 °C 19.6 °C 1023.2 hPa NNE 8.0 km/h 17.7 km/h 84 % 0.0 mm
14:12 22.4 °C 19.4 °C 1023.2 hPa NNE 9.7 km/h 17.7 km/h 83 % 0.0 mm
14:17 22.4 °C 19.2 °C 1023.2 hPa NE 8.0 km/h 17.7 km/h 82 % 0.0 mm
14:22 22.6 °C 19.6 °C 1022.9 hPa NW 6.4 km/h 17.7 km/h 83 % 0.0 mm
14:27 22.9 °C 19.5 °C 1022.9 hPa NE 8.0 km/h 17.7 km/h 81 % 0.0 mm
14:32 22.9 °C 19.3 °C 1022.9 hPa NNE 8.0 km/h 14.5 km/h 80 % 0.0 mm
14:37 23.1 °C 19.7 °C 1022.9 hPa NE 8.0 km/h 16.1 km/h 81 % 0.0 mm
14:42 23.0 °C 19.4 °C 1022.9 hPa NE 6.4 km/h 17.7 km/h 80 % 0.0 mm
14:47 22.9 °C 19.3 °C 1022.9 hPa NNE 17.7 km/h 17.7 km/h 80 % 0.0 mm
14:52 23.1 °C 19.5 °C 1022.9 hPa NNE 8.0 km/h 22.5 km/h 80 % 0.0 mm
14:57 23.3 °C 19.5 °C 1022.6 hPa NE 14.5 km/h 22.5 km/h 79 % 0.0 mm
15:02 23.3 °C 19.0 °C 1022.6 hPa NE 6.4 km/h 22.5 km/h 77 % 0.0 mm
15:07 23.4 °C 19.1 °C 1022.6 hPa NNE 6.4 km/h 19.3 km/h 77 % 0.0 mm
15:12 23.4 °C 19.3 °C 1022.6 hPa NNE 17.7 km/h 19.3 km/h 78 % 0.0 mm
15:17 23.5 °C 19.2 °C 1022.6 hPa NNE 9.7 km/h 19.3 km/h 77 % 0.0 mm
15:22 23.5 °C 19.2 °C 1022.6 hPa NNE 1.6 km/h 19.3 km/h 77 % 0.0 mm
15:27 23.3 °C 19.0 °C 1022.6 hPa NE 6.4 km/h 19.3 km/h 77 % 0.0 mm
15:32 23.3 °C 19.0 °C 1022.6 hPa North 12.9 km/h 16.1 km/h 77 % 0.0 mm
15:37 23.3 °C 19.2 °C 1022.6 hPa NE 16.1 km/h 16.1 km/h 78 % 0.0 mm
15:42 23.3 °C 19.0 °C 1022.2 hPa NE 6.4 km/h 19.3 km/h 77 % 0.0 mm
15:47 23.6 °C 19.1 °C 1022.2 hPa ENE 6.4 km/h 19.3 km/h 76 % 0.0 mm
15:52 23.7 °C 19.2 °C 1022.2 hPa NNW 4.8 km/h 17.7 km/h 76 % 0.0 mm
15:57 23.6 °C 19.1 °C 1022.2 hPa NE 17.7 km/h 17.7 km/h 76 % 0.0 mm
16:02 23.6 °C 18.9 °C 1022.2 hPa NW 4.8 km/h 19.3 km/h 75 % 0.0 mm
16:07 23.6 °C 18.9 °C 1022.2 hPa NNW 8.0 km/h 20.9 km/h 75 % 0.0 mm
16:12 23.9 °C 19.0 °C 1022.2 hPa NE 11.3 km/h 20.9 km/h 74 % 0.0 mm
16:17 24.2 °C 18.8 °C 1021.9 hPa North 9.7 km/h 20.9 km/h 72 % 0.0 mm
16:22 24.4 °C 19.0 °C 1021.9 hPa NNE 8.0 km/h 17.7 km/h 72 % 0.0 mm
16:27 24.4 °C 19.0 °C 1021.9 hPa WNW 8.0 km/h 19.3 km/h 72 % 0.0 mm
16:32 24.3 °C 18.7 °C 1021.9 hPa North 12.9 km/h 19.3 km/h 71 % 0.0 mm
16:37 24.2 °C 18.8 °C 1021.9 hPa NE 8.0 km/h 17.7 km/h 72 % 0.0 mm
16:42 24.2 °C 18.4 °C 1021.9 hPa NE 6.4 km/h 17.7 km/h 70 % 0.0 mm
16:47 24.4 °C 18.6 °C 1021.9 hPa NW 8.0 km/h 17.7 km/h 70 % 0.0 mm
16:57 24.7 °C 19.3 °C 1021.9 hPa NNE 3.2 km/h 16.1 km/h 72 % 0.0 mm
17:02 24.7 °C 18.9 °C 1021.6 hPa NE 6.4 km/h 16.1 km/h 70 % 0.0 mm
17:07 24.9 °C 18.8 °C 1021.6 hPa NW 8.0 km/h 16.1 km/h 69 % 0.0 mm
17:12 25.1 °C 18.3 °C 1021.6 hPa North 9.7 km/h 16.1 km/h 66 % 0.0 mm
17:17 25.2 °C 18.6 °C 1021.6 hPa NNE 4.8 km/h 17.7 km/h 67 % 0.0 mm
17:22 25.1 °C 18.1 °C 1021.6 hPa NNE 8.0 km/h 29.0 km/h 65 % 0.0 mm
17:27 24.5 °C 18.0 °C 1021.6 hPa NE 11.3 km/h 29.0 km/h 67 % 0.0 mm
17:32 24.4 °C 18.3 °C 1021.6 hPa North 12.9 km/h 29.0 km/h 69 % 0.0 mm
17:37 24.7 °C 18.4 °C 1021.6 hPa North 9.7 km/h 25.7 km/h 68 % 0.0 mm
17:42 24.8 °C 18.0 °C 1021.2 hPa NE 6.4 km/h 25.7 km/h 66 % 0.0 mm
17:52 25.1 °C 17.8 °C 1021.6 hPa NNE 6.4 km/h 19.3 km/h 64 % 0.0 mm
17:57 25.4 °C 18.1 °C 1021.6 hPa NE 6.4 km/h 16.1 km/h 64 % 0.0 mm
18:02 25.2 °C 17.7 °C 1021.6 hPa NNE 16.1 km/h 16.1 km/h 63 % 0.0 mm
18:07 24.9 °C 17.6 °C 1021.2 hPa North 12.9 km/h 20.9 km/h 64 % 0.0 mm
18:12 24.8 °C 17.3 °C 1021.2 hPa NE 11.3 km/h 22.5 km/h 63 % 0.0 mm
18:17 24.8 °C 17.0 °C 1021.2 hPa NE 11.3 km/h 22.5 km/h 62 % 0.0 mm
18:22 24.9 °C 17.6 °C 1021.2 hPa East 6.4 km/h 20.9 km/h 64 % 0.0 mm
18:27 24.8 °C 17.3 °C 1021.2 hPa NNE 14.5 km/h 20.9 km/h 63 % 0.0 mm
18:42 24.7 °C 17.2 °C 1020.9 hPa North 4.8 km/h 20.9 km/h 63 % 0.0 mm
18:47 24.7 °C 17.4 °C 1020.9 hPa NNE 9.7 km/h 20.9 km/h 64 % 0.0 mm
18:52 24.7 °C 17.2 °C 1020.9 hPa North 4.8 km/h 20.9 km/h 63 % 0.0 mm
18:57 24.8 °C 17.3 °C 1020.9 hPa North 11.3 km/h 20.9 km/h 63 % 0.0 mm
19:04 24.8 °C 17.3 °C 1020.9 hPa North 1.6 km/h 20.9 km/h 63 % 0.0 mm
19:12 24.7 °C 17.2 °C 1020.9 hPa NE 14.5 km/h 16.1 km/h 63 % 0.0 mm
19:17 24.6 °C 17.1 °C 1020.9 hPa NE 11.3 km/h 25.7 km/h 63 % 0.0 mm
19:22 24.4 °C 16.9 °C 1020.9 hPa NE 12.9 km/h 25.7 km/h 63 % 0.0 mm
19:32 24.3 °C 17.1 °C 1020.9 hPa NW 3.2 km/h 17.7 km/h 64 % 0.0 mm
19:37 24.2 °C 17.0 °C 1020.9 hPa NE 6.4 km/h 17.7 km/h 64 % 0.0 mm
19:42 23.9 °C 16.9 °C 1020.9 hPa NNE 4.8 km/h 17.7 km/h 65 % 0.0 mm
19:47 23.7 °C 16.7 °C 1020.9 hPa NE 11.3 km/h 19.3 km/h 65 % 0.0 mm
19:52 23.6 °C 16.6 °C 1020.9 hPa NE 12.9 km/h 20.9 km/h 65 % 0.0 mm
19:57 23.4 °C 16.7 °C 1020.9 hPa NE 6.4 km/h 20.9 km/h 66 % 0.0 mm
20:02 23.3 °C 16.6 °C 1020.9 hPa NNE 8.0 km/h 20.9 km/h 66 % 0.0 mm
20:07 23.2 °C 16.7 °C 1020.9 hPa NNE 6.4 km/h 20.9 km/h 67 % 0.0 mm
20:12 22.9 °C 16.7 °C 1020.9 hPa NE 3.2 km/h 12.9 km/h 68 % 0.0 mm
20:22 22.4 °C 16.4 °C 1020.9 hPa NNW 1.6 km/h 14.5 km/h 69 % 0.0 mm
20:32 22.1 °C 16.4 °C 1020.9 hPa NE 4.8 km/h 9.7 km/h 70 % 0.0 mm
20:37 21.9 °C 16.4 °C 1020.9 hPa NNW 3.2 km/h 9.7 km/h 71 % 0.0 mm
20:42 21.8 °C 16.3 °C 1020.9 hPa NNE 6.4 km/h 11.3 km/h 71 % 0.0 mm
20:47 21.7 °C 16.4 °C 1020.9 hPa NE 9.7 km/h 11.3 km/h 72 % 0.0 mm
20:52 21.4 °C 16.1 °C 1020.9 hPa NE 6.4 km/h 12.9 km/h 72 % 0.0 mm
20:57 21.3 °C 16.3 °C 1021.2 hPa NE 3.2 km/h 12.9 km/h 73 % 0.0 mm
21:02 21.1 °C 16.3 °C 1021.2 hPa NNE 9.7 km/h 12.9 km/h 74 % 0.0 mm
21:07 21.1 °C 16.3 °C 1021.2 hPa North 3.2 km/h 11.3 km/h 74 % 0.0 mm
21:12 20.8 °C 16.0 °C 1021.2 hPa North 4.8 km/h 11.3 km/h 74 % 0.0 mm
21:17 20.8 °C 16.0 °C 1021.2 hPa NNE 3.2 km/h 11.3 km/h 74 % 0.0 mm
21:22 20.7 °C 16.1 °C 1021.2 hPa NNE 1.6 km/h 9.7 km/h 75 % 0.0 mm
21:32 20.4 °C 15.8 °C 1021.2 hPa NNW 1.6 km/h 9.7 km/h 75 % 0.0 mm
21:37 20.3 °C 15.9 °C 1021.2 hPa Calm   8.0 km/h 76 % 0.0 mm
21:42 20.2 °C 15.8 °C 1021.2 hPa Calm   6.4 km/h 76 % 0.0 mm
21:47 19.9 °C 15.7 °C 1021.2 hPa Calm   6.4 km/h 77 % 0.0 mm
21:52 19.7 °C 15.6 °C 1021.2 hPa NNE 1.6 km/h 6.4 km/h 77 % 0.0 mm
21:57 19.6 °C 15.5 °C 1021.2 hPa NE 1.6 km/h 3.2 km/h 77 % 0.0 mm
22:02 19.4 °C 15.3 °C 1021.2 hPa Calm   3.2 km/h 77 % 0.0 mm
22:07 19.3 °C 15.2 °C 1021.2 hPa Calm   3.2 km/h 77 % 0.0 mm
22:12 19.2 °C 15.1 °C 1020.9 hPa Calm   3.2 km/h 77 % 0.0 mm
22:17 19.1 °C 15.0 °C 1020.9 hPa Calm   3.2 km/h 77 % 0.0 mm
22:22 19.1 °C 15.2 °C 1020.9 hPa NNE 1.6 km/h 1.6 km/h 78 % 0.0 mm
22:27 19.1 °C 15.2 °C 1020.9 hPa NNE 1.6 km/h 1.6 km/h 78 % 0.0 mm
22:32 19.1 °C 15.0 °C 1020.9 hPa Calm   1.6 km/h 77 % 0.0 mm
22:37 19.0 °C 15.1 °C 1020.9 hPa Calm   1.6 km/h 78 % 0.0 mm
22:42 19.1 °C 15.2 °C 1020.9 hPa Calm   1.6 km/h 78 % 0.0 mm
22:47 19.3 °C 15.2 °C 1020.9 hPa Calm   1.6 km/h 77 % 0.0 mm
22:52 19.3 °C 15.2 °C 1020.9 hPa Calm   1.6 km/h 77 % 0.0 mm
22:57 19.2 °C 15.1 °C 1020.9 hPa Calm   1.6 km/h 77 % 0.0 mm
23:02 18.9 °C 15.0 °C 1020.9 hPa Calm     78 % 0.0 mm
23:07 18.6 °C 14.7 °C 1020.5 hPa North 1.6 km/h   78 % 0.0 mm
23:12 18.3 °C 14.6 °C 1020.5 hPa North 1.6 km/h 4.8 km/h 79 % 0.0 mm
23:17 18.0 °C 14.7 °C 1020.5 hPa North 3.2 km/h 4.8 km/h 81 % 0.0 mm
23:22 17.9 °C 14.6 °C 1020.5 hPa NNE 1.6 km/h 4.8 km/h 81 % 0.0 mm
23:27 17.7 °C 14.4 °C 1020.5 hPa NNE 1.6 km/h 4.8 km/h 81 % 0.0 mm
23:32 17.6 °C 14.5 °C 1020.5 hPa North 1.6 km/h 4.8 km/h 82 % 0.0 mm
23:37 17.7 °C 14.6 °C 1020.5 hPa Calm   6.4 km/h 82 % 0.0 mm
23:42 17.7 °C 14.4 °C 1020.5 hPa NE 1.6 km/h 6.4 km/h 81 % 0.0 mm
23:52 17.5 °C 14.2 °C 1020.5 hPa Calm   6.4 km/h 81 % 0.0 mm
23:57 17.3 °C 14.0 °C 1020.5 hPa NNW 1.6 km/h 6.4 km/h 81 % 0.0 mm
Meteo18
Compliments of Weather Underground - 4 mb

Script developed by  Jim McMurry - jmcmurry@mwt.net Adapted for the template by  Wim van der Kuil - Leuven-Template.eu

You find our weather info also at:

European Weather Network

Weather Underground

Equipment we use:

Weather-station
Davis Vue

Weather-program
Meteohub

Weather-server
Raspberry PI 2 B+

Provider
1 and 1

Davis Vue

Meteohub

Raspberry PI 2 B+

1 and 1